Terminal Aerodrome Forecast
Issued by NWS

Home | Current Version | Previous Version | Text Only | Print | Product List | Glossary Off
Versions: 1 2 3 4 5 6 7 8 9 10 11 12 13 14 15 16 17 18

434
FTUS43 KICT 062333
TAFSLN
TAF
KSLN 062333Z 0700/0724 VRB03KT P6SM OVC150
     FM070200 VRB03KT P6SM OVC100
     FM071200 05008KT 5SM -SN BR SCT035 OVC060
     FM071500 03012KT 4SM -SN BR SCT025 OVC040
     FM071800 04013KT P6SM OVC030=

USA.gov is the U.S. government's official web portal to all federal, state and local government web resources and services.